Time;durP1;ratioP1;P1;durP2;ratioP2;P2;SDS_P1;SDS_P2;PMS_P1;PMS_P2;Temp;Humidity;BMP_temperature;BMP_pressure;BME280_temperature;BME280_humidity;BME280_pressure;Samples;Min_cycle;Max_cycle;Signal;HPM_P1;HPM_P2
2023/05/02 00:01:04;;;;;;;7.57;5.87;;;;;;;7.94;nan;100595.38;5025224;28;20044;-80
2023/05/02 00:03:31;;;;;;;8.13;6.37;;;;;;;7.85;nan;100594.59;5014501;28;20041;-80
2023/05/02 00:05:59;;;;;;;8.57;6.90;;;;;;;7.80;nan;100595.50;5007347;28;20041;-80
2023/05/02 00:08:26;;;;;;;9.73;6.27;;;;;;;7.76;nan;100593.81;5015008;28;20041;-80
2023/05/02 00:10:53;;;;;;;9.07;6.00;;;;;;;7.71;nan;100585.09;5022214;28;20045;-81
2023/05/02 00:13:20;;;;;;;7.00;5.70;;;;;;;7.74;nan;100595.59;4995906;28;20038;-80
2023/05/02 00:15:47;;;;;;;9.10;6.67;;;;;;;7.63;nan;100588.66;5023689;28;20041;-81
2023/05/02 00:18:14;;;;;;;8.27;5.80;;;;;;;7.60;nan;100582.56;5023497;28;20482;-79
2023/05/02 00:20:41;;;;;;;9.93;6.70;;;;;;;7.60;nan;100587.84;5008596;28;20045;-81
2023/05/02 00:23:10;;;;;;;6.67;5.93;;;;;;;7.57;nan;100579.97;5022511;28;20063;-80
2023/05/02 00:25:45;;;;;;;12.00;6.80;;;;;;;7.57;nan;100590.50;5023477;28;20691;-81
2023/05/02 00:28:12;;;;;;;8.50;6.47;;;;;;;7.49;nan;100585.31;5027579;28;20033;-80
2023/05/02 00:30:43;;;;;;;8.20;6.57;;;;;;;7.41;nan;100579.25;5026561;28;20507;-80
2023/05/02 00:33:12;;;;;;;10.47;7.13;;;;;;;7.37;nan;100582.78;5023208;28;20045;-80
2023/05/02 00:35:39;;;;;;;9.57;6.70;;;;;;;7.28;nan;100575.84;5023607;28;20074;-80
2023/05/02 00:38:06;;;;;;;7.73;6.50;;;;;;;7.31;nan;100575.84;5014817;28;20043;-80
2023/05/02 00:40:47;;;;;;;9.10;6.23;;;;;;;7.30;nan;100583.69;5030130;28;20041;-81
2023/05/02 00:43:14;;;;;;;10.00;6.90;;;;;;;7.12;nan;100584.72;5011948;28;20045;-80
2023/05/02 00:45:43;;;;;;;8.03;6.23;;;;;;;7.07;nan;100581.28;5014320;28;20045;-80
2023/05/02 00:48:10;;;;;;;9.57;6.60;;;;;;;7.16;nan;100585.59;5029677;28;20021;-81
2023/05/02 00:50:39;;;;;;;8.80;6.80;;;;;;;6.97;nan;100579.56;5018106;28;20041;-81
2023/05/02 00:53:07;;;;;;;12.93;8.40;;;;;;;6.95;nan;100584.84;5010055;28;20519;-80
2023/05/02 00:55:35;;;;;;;13.07;9.03;;;;;;;6.94;nan;100579.59;5009927;28;20518;-82
2023/05/02 00:58:06;;;;;;;11.50;8.67;;;;;;;7.02;nan;100576.03;5009972;28;20036;-81
2023/05/02 01:01:08;;;;;;;10.40;7.57;;;;;;;7.09;nan;100583.88;5013849;28;20063;-81
2023/05/02 01:03:46;;;;;;;12.27;9.20;;;;;;;7.00;nan;100587.47;4999186;28;20627;-81
2023/05/02 01:06:28;;;;;;;12.37;7.83;;;;;;;6.76;nan;100585.84;5017768;28;20042;-80
2023/05/02 01:09:04;;;;;;;10.73;8.37;;;;;;;6.63;nan;100592.03;5003621;28;20037;-81
2023/05/02 01:11:48;;;;;;;16.80;8.70;;;;;;;6.57;nan;100594.72;5011262;28;20039;-79
2023/05/02 01:14:16;;;;;;;12.52;8.70;;;;;;;6.54;nan;100600.84;5009933;28;20047;-80
2023/05/02 01:16:44;;;;;;;16.27;9.97;;;;;;;6.64;nan;100589.44;5007321;28;20506;-80
2023/05/02 01:19:19;;;;;;;17.97;9.83;;;;;;;6.61;nan;100597.31;5027727;28;20037;-80
2023/05/02 01:21:47;;;;;;;16.80;10.60;;;;;;;6.71;nan;100611.25;5007324;28;20068;-80
2023/05/02 01:24:26;;;;;;;17.80;11.83;;;;;;;6.51;nan;100605.25;4994218;28;20059;-80
2023/05/02 01:27:06;;;;;;;17.67;11.20;;;;;;;6.45;nan;100607.00;5030355;28;20051;-81
2023/05/02 01:29:34;;;;;;;19.73;13.13;;;;;;;6.46;nan;100603.50;5005611;28;20075;-80
2023/05/02 01:32:01;;;;;;;23.03;14.17;;;;;;;6.50;nan;100609.63;4993838;28;20045;-80
2023/05/02 01:34:30;;;;;;;26.00;14.17;;;;;;;6.63;nan;100605.19;5012989;28;20049;-80
2023/05/02 01:36:58;;;;;;;30.33;18.83;;;;;;;6.53;nan;100614.84;4989062;28;20083;-80
2023/05/02 01:39:29;;;;;;;32.87;19.70;;;;;;;6.45;nan;100619.25;5021000;28;20045;-81
2023/05/02 01:41:58;;;;;;;31.17;18.13;;;;;;;6.52;nan;100618.34;5027146;28;20044;-80
2023/05/02 01:44:27;;;;;;;25.37;17.17;;;;;;;6.40;nan;100607.94;5026701;28;20087;-80
2023/05/02 01:46:55;;;;;;;25.10;15.17;;;;;;;6.47;nan;100617.50;5011906;28;20044;-80
2023/05/02 01:49:23;;;;;;;23.93;14.40;;;;;;;6.45;nan;100617.50;5013918;28;20047;-80
2023/05/02 01:51:51;;;;;;;19.87;12.60;;;;;;;6.56;nan;100627.97;5026999;28;20517;-80
2023/05/02 01:54:20;;;;;;;18.30;11.93;;;;;;;6.54;nan;100624.47;5004657;28;20041;-80
2023/05/02 01:56:48;;;;;;;17.77;11.43;;;;;;;6.47;nan;100625.38;5025408;28;20503;-80
2023/05/02 01:59:17;;;;;;;21.33;11.43;;;;;;;6.45;nan;100622.75;5019697;28;20037;-81
2023/05/02 02:01:45;;;;;;;15.03;10.37;;;;;;;6.41;nan;100628.03;5022436;28;20052;-81
2023/05/02 02:04:13;;;;;;;15.40;9.77;;;;;;;6.56;nan;100629.69;5021927;28;20033;-81
2023/05/02 02:06:47;;;;;;;14.93;9.57;;;;;;;6.55;nan;100635.84;5003648;28;20494;-81
2023/05/02 02:09:14;;;;;;;14.60;9.85;;;;;;;6.56;nan;100629.69;5007509;28;20047;-81
2023/05/02 02:12:11;;;;;;;12.77;9.10;;;;;;;6.59;nan;100640.22;5019210;28;20049;-80
2023/05/02 02:14:42;;;;;;;14.97;10.23;;;;;;;6.69;nan;100648.03;4998040;28;20045;-80
2023/05/02 02:17:21;;;;;;;15.97;8.93;;;;;;;6.64;nan;100638.41;5032135;28;20043;-80
2023/05/02 02:19:53;;;;;;;11.50;8.23;;;;;;;6.52;nan;100643.72;5028045;28;20531;-80
2023/05/02 02:22:20;;;;;;;10.57;8.07;;;;;;;6.52;nan;100652.47;5005842;28;20408;-81
2023/05/02 02:24:47;;;;;;;15.17;10.47;;;;;;;6.44;nan;100644.63;5027351;28;20040;-80
2023/05/02 02:27:14;;;;;;;13.27;8.07;;;;;;;6.44;nan;100646.38;5025042;28;20425;-81
2023/05/02 02:29:41;;;;;;;13.63;8.70;;;;;;;6.37;nan;100660.41;5014687;28;20618;-80
2023/05/02 02:32:08;;;;;;;12.50;8.90;;;;;;;6.39;nan;100648.13;5027214;28;21578;-81
2023/05/02 02:34:35;;;;;;;16.23;8.40;;;;;;;6.26;nan;100655.19;5013431;28;20037;-81
2023/05/02 02:37:19;;;;;;;10.77;8.37;;;;;;;6.23;nan;100656.97;5028840;28;20029;-81
2023/05/02 02:40:09;;;;;;;11.83;7.63;;;;;;;6.16;nan;100651.72;5001772;28;20037;-81
2023/05/02 02:42:42;;;;;;;13.30;7.77;;;;;;;6.14;nan;100660.50;5017385;28;20294;-80
2023/05/02 02:45:35;;;;;;;10.93;7.17;;;;;;;6.14;nan;100669.22;5025572;28;20033;-81
2023/05/02 02:48:27;;;;;;;8.80;6.53;;;;;;;6.14;nan;100669.22;5036678;28;20043;-80
2023/05/02 02:51:07;;;;;;;8.90;6.97;;;;;;;6.10;nan;100669.22;5030305;28;20502;-81
2023/05/02 02:54:01;;;;;;;9.67;7.40;;;;;;;6.04;nan;100675.34;5009123;28;20051;-80
2023/05/02 02:56:40;;;;;;;10.70;7.57;;;;;;;5.98;nan;100682.38;5024474;28;20060;-80
2023/05/02 02:59:18;;;;;;;10.67;7.77;;;;;;;5.95;nan;100698.09;5017041;28;20060;-80
2023/05/02 03:01:48;;;;;;;10.93;7.27;;;;;;;5.93;nan;100687.63;5007042;28;20048;-81
2023/05/02 03:04:15;;;;;;;9.63;7.57;;;;;;;5.91;nan;100698.09;5015018;28;20043;-80
2023/05/02 03:06:42;;;;;;;13.90;7.53;;;;;;;5.97;nan;100709.44;5014225;28;20034;-81
2023/05/02 03:09:18;;;;;;;12.07;7.80;;;;;;;5.89;nan;100714.69;5030641;28;20037;-81
2023/05/02 03:11:45;;;;;;;9.80;7.17;;;;;;;5.97;nan;100707.72;5029721;28;20410;-81
2023/05/02 03:14:12;;;;;;;10.60;7.70;;;;;;;5.81;nan;100708.56;5026610;28;20506;-80
2023/05/02 03:16:39;;;;;;;10.77;7.20;;;;;;;5.84;nan;100709.44;5004153;28;20047;-80
2023/05/02 03:19:07;;;;;;;11.43;6.87;;;;;;;5.75;nan;100712.06;5017542;28;20433;-81
2023/05/02 03:21:35;;;;;;;10.00;6.87;;;;;;;5.85;nan;100716.44;5033847;28;20421;-80
2023/05/02 03:24:03;;;;;;;12.10;6.67;;;;;;;5.84;nan;100721.66;5014733;28;20038;-81
2023/05/02 03:26:30;;;;;;;10.00;6.70;;;;;;;5.90;nan;100717.34;5016691;28;20434;-81
2023/05/02 03:28:57;;;;;;;11.03;7.00;;;;;;;5.80;nan;100714.66;4996960;28;20618;-80
2023/05/02 03:31:24;;;;;;;8.40;6.47;;;;;;;5.70;nan;100723.41;5023673;28;20045;-81
2023/05/02 03:33:53;;;;;;;9.60;6.73;;;;;;;5.67;nan;100724.28;5017304;28;20036;-81
2023/05/02 03:36:20;;;;;;;8.77;6.90;;;;;;;5.57;nan;100725.16;5009998;28;20524;-80
2023/05/02 03:38:47;;;;;;;8.70;7.43;;;;;;;5.60;nan;100728.66;5028764;28;20037;-81
2023/05/02 03:41:14;;;;;;;9.97;6.80;;;;;;;5.69;nan;100732.16;5008634;28;20048;-81
2023/05/02 03:43:41;;;;;;;9.77;6.80;;;;;;;5.71;nan;100733.03;5015800;28;20067;-81
2023/05/02 03:46:08;;;;;;;8.80;7.00;;;;;;;5.61;nan;100742.63;5020794;28;20033;-81
2023/05/02 03:48:35;;;;;;;8.73;6.90;;;;;;;5.59;nan;100744.38;5016359;28;20041;-80
2023/05/02 03:51:04;;;;;;;8.83;6.40;;;;;;;5.54;nan;100744.34;5032604;28;20383;-80
2023/05/02 03:53:31;;;;;;;10.10;8.23;;;;;;;5.59;nan;100758.34;5019969;28;20037;-80
2023/05/02 03:55:58;;;;;;;8.50;6.17;;;;;;;5.58;nan;100760.97;5016460;28;20045;-80
2023/05/02 03:58:26;;;;;;;9.60;6.77;;;;;;;5.61;nan;100771.44;5011554;28;20025;-81
2023/05/02 04:00:53;;;;;;;9.47;6.70;;;;;;;5.73;nan;100771.50;5030151;28;20037;-81
2023/05/02 04:03:20;;;;;;;9.27;7.53;;;;;;;5.76;nan;100766.25;5023058;28;20045;-81
2023/05/02 04:05:47;;;;;;;10.50;6.90;;;;;;;5.81;nan;100767.13;5025059;28;20046;-80
2023/05/02 04:08:14;;;;;;;9.17;6.57;;;;;;;5.83;nan;100773.25;5014691;28;20043;-81
2023/05/02 04:10:41;;;;;;;11.73;6.83;;;;;;;5.80;nan;100778.50;5015687;28;20037;-80
2023/05/02 04:13:08;;;;;;;9.67;6.90;;;;;;;5.81;nan;100787.22;5016066;28;20445;-81
2023/05/02 04:15:36;;;;;;;10.80;6.70;;;;;;;5.86;nan;100794.19;5010597;28;20033;-80
2023/05/02 04:18:03;;;;;;;9.80;6.77;;;;;;;5.95;nan;100798.63;4997053;28;20033;-84
2023/05/02 04:20:30;;;;;;;8.03;5.97;;;;;;;6.03;nan;100812.59;5012304;28;20068;-85
2023/05/02 04:22:57;;;;;;;14.00;6.77;;;;;;;6.11;nan;100807.38;5051825;28;20049;-85
2023/05/02 04:25:24;;;;;;;8.10;6.20;;;;;;;6.18;nan;100817.00;5032794;28;20033;-85
2023/05/02 04:27:51;;;;;;;8.63;5.83;;;;;;;6.25;nan;100812.63;5032785;28;20039;-85
2023/05/02 04:30:18;;;;;;;9.07;6.47;;;;;;;6.32;nan;100811.75;5015022;28;20041;-85
2023/05/02 04:32:45;;;;;;;7.57;6.07;;;;;;;6.37;nan;100817.84;5013048;28;20067;-85
2023/05/02 04:35:14;;;;;;;7.77;5.93;;;;;;;6.47;nan;100814.34;5013842;28;20048;-85
2023/05/02 04:37:41;;;;;;;7.07;5.73;;;;;;;6.46;nan;100820.47;5002692;28;20415;-84
2023/05/02 04:40:08;;;;;;;9.43;6.57;;;;;;;6.54;nan;100828.31;5050052;28;20426;-88
2023/05/02 04:42:35;;;;;;;6.27;5.27;;;;;;;6.55;nan;100820.44;4990472;28;20041;-84
2023/05/02 04:45:02;;;;;;;7.93;6.10;;;;;;;6.52;nan;100830.97;5025113;28;20037;-88
2023/05/02 04:47:29;;;;;;;8.23;6.20;;;;;;;6.47;nan;100832.69;5017716;28;20045;-84
2023/05/02 04:49:56;;;;;;;8.57;5.90;;;;;;;6.49;nan;100836.22;5027386;28;20052;-85
2023/05/02 04:52:23;;;;;;;9.13;6.03;;;;;;;6.51;nan;100844.97;5011006;28;20060;-83
2023/05/02 04:54:51;;;;;;;9.67;5.83;;;;;;;6.59;nan;100839.72;5013358;28;20044;-85
2023/05/02 04:57:17;;;;;;;9.23;5.83;;;;;;;6.63;nan;100844.94;5014277;28;20053;-83
2023/05/02 04:59:45;;;;;;;9.33;6.23;;;;;;;6.75;nan;100849.31;5017913;28;20033;-85
2023/05/02 05:02:12;;;;;;;8.63;6.27;;;;;;;6.88;nan;100858.03;5017318;28;20037;-89
2023/05/02 05:04:39;;;;;;;8.60;5.50;;;;;;;7.03;nan;100864.13;5032901;28;20033;-84
2023/05/02 05:07:06;;;;;;;9.23;5.93;;;;;;;7.22;nan;100862.28;5017158;28;20037;-89
2023/05/02 05:09:33;;;;;;;8.53;6.00;;;;;;;7.41;nan;100859.63;5033394;28;20033;-84
2023/05/02 05:12:00;;;;;;;9.43;5.03;;;;;;;7.39;nan;100854.34;5033329;28;20037;-83
2023/05/02 05:14:27;;;;;;;8.47;5.30;;;;;;;7.60;nan;100859.50;5000447;28;20040;-83
2023/05/02 05:16:54;;;;;;;8.97;6.57;;;;;;;7.68;nan;100867.38;5017589;28;20051;-84
2023/05/02 05:19:32;;;;;;;8.17;5.60;;;;;;;7.70;nan;100868.22;5033734;28;20037;-83
2023/05/02 05:22:02;;;;;;;10.63;5.60;;;;;;;7.71;nan;100874.34;5033629;28;20049;-82
2023/05/02 05:24:29;;;;;;;6.60;5.37;;;;;;;7.92;nan;100878.63;5015148;28;20477;-85
2023/05/02 05:26:55;;;;;;;6.43;4.93;;;;;;;8.07;nan;100886.41;5031873;28;20040;-82
2023/05/02 05:29:22;;;;;;;6.93;5.10;;;;;;;8.43;nan;100885.31;5006676;28;20030;-83
2023/05/02 05:31:49;;;;;;;8.27;5.40;;;;;;;8.65;nan;100889.50;5030080;28;20037;-83
2023/05/02 05:34:16;;;;;;;7.50;4.60;;;;;;;8.74;nan;100885.91;5013972;28;20037;-83
2023/05/02 05:36:44;;;;;;;6.27;4.80;;;;;;;8.92;nan;100890.16;5020988;28;20041;-83
2023/05/02 05:39:11;;;;;;;7.90;5.17;;;;;;;9.18;nan;100896.00;5015645;28;20107;-82
2023/05/02 05:41:38;;;;;;;7.63;5.30;;;;;;;9.45;nan;100893.94;5043205;28;20033;-82
2023/05/02 05:44:05;;;;;;;7.17;4.70;;;;;;;9.80;nan;100894.34;5012958;28;20043;-84
2023/05/02 05:46:32;;;;;;;8.17;4.40;;;;;;;10.04;nan;100903.69;5016426;28;20037;-84
2023/05/02 05:49:00;;;;;;;8.50;4.87;;;;;;;10.41;nan;100900.53;5031970;28;20043;-85
2023/05/02 05:51:27;;;;;;;6.82;4.63;;;;;;;11.05;nan;100903.84;5023779;28;20032;-85
2023/05/02 05:53:54;;;;;;;8.57;4.10;;;;;;;12.41;nan;100907.13;5006020;28;20037;-85
2023/05/02 05:56:22;;;;;;;7.72;5.10;;;;;;;12.59;nan;100903.16;5013733;28;20657;-82
2023/05/02 05:58:49;;;;;;;8.55;4.43;;;;;;;12.45;nan;100916.78;5016726;28;20043;-84
2023/05/02 06:01:16;;;;;;;8.18;4.75;;;;;;;12.44;nan;100920.31;5016653;28;20079;-82
2023/05/02 06:03:43;;;;;;;8.63;5.68;;;;;;;12.02;nan;100927.47;4989739;28;20055;-81
2023/05/02 06:06:10;;;;;;;11.68;5.60;;;;;;;12.03;nan;100932.75;5013677;28;20047;-83
2023/05/02 06:08:37;;;;;;;10.35;5.80;;;;;;;12.30;nan;100944.50;5012765;28;20044;-83
2023/05/02 06:11:10;;;;;;;12.48;6.00;;;;;;;12.31;nan;100948.88;5025882;28;20059;-83
2023/05/02 06:13:37;;;;;;;10.60;5.78;;;;;;;12.40;nan;100943.38;5049312;28;20032;-84
2023/05/02 06:16:05;;;;;;;7.68;5.13;;;;;;;12.75;nan;100956.69;5010741;28;20044;-84
2023/05/02 06:18:32;;;;;;;76.40;9.63;;;;;;;13.48;nan;100947.69;5013939;28;20397;-84
2023/05/02 06:21:05;;;;;;;8.20;5.97;;;;;;;14.51;nan;100953.50;5027044;28;20044;-83
2023/05/02 06:23:33;;;;;;;7.07;5.00;;;;;;;15.38;nan;100954.97;5011603;28;20513;-84
2023/05/02 06:26:01;;;;;;;6.97;4.90;;;;;;;16.42;nan;100959.09;4989070;28;20041;-86
2023/05/02 06:28:28;;;;;;;7.80;5.45;;;;;;;16.38;nan;100960.13;5030353;28;20037;-87
2023/05/02 06:31:04;;;;;;;6.28;5.28;;;;;;;16.46;nan;100958.03;5009488;28;20036;-83
2023/05/02 06:33:32;;;;;;;7.88;4.60;;;;;;;17.05;nan;100962.75;5033880;28;20066;-84
2023/05/02 06:35:59;;;;;;;5.65;4.22;;;;;;;16.77;nan;100965.72;5014070;28;20047;-84
2023/05/02 06:38:28;;;;;;;5.43;4.43;;;;;;;15.67;nan;100972.63;5022472;28;20042;-83
2023/05/02 06:40:55;;;;;;;6.18;4.05;;;;;;;16.13;nan;100974.41;5012723;28;20388;-84
2023/05/02 06:43:22;;;;;;;5.05;3.83;;;;;;;16.22;nan;100978.53;5023133;28;20049;-83
2023/05/02 06:45:51;;;;;;;7.18;4.07;;;;;;;15.58;nan;100988.91;5034020;28;20033;-86
2023/05/02 06:48:18;;;;;;;4.13;3.15;;;;;;;15.52;nan;100987.31;5008869;28;20037;-84
2023/05/02 06:50:46;;;;;;;5.53;3.53;;;;;;;15.27;nan;100989.09;5025201;28;20029;-83
2023/05/02 06:53:13;;;;;;;5.75;5.03;;;;;;;14.90;nan;100996.56;5032211;28;20045;-84
2023/05/02 06:55:40;;;;;;;5.75;4.22;;;;;;;14.06;nan;100996.50;5018860;28;20036;-84
2023/05/02 06:58:07;;;;;;;18.98;4.90;;;;;;;13.87;nan;101000.56;5010376;28;20041;-84
2023/05/02 07:00:34;;;;;;;7.32;3.95;;;;;;;13.66;nan;101010.03;4999390;28;20044;-84
2023/05/02 07:03:01;;;;;;;8.43;7.43;;;;;;;13.38;nan;101011.69;5015930;28;20037;-84
2023/05/02 07:05:28;;;;;;;4.72;4.00;;;;;;;13.32;nan;101025.97;5028563;28;20043;-84
2023/05/02 07:07:55;;;;;;;5.68;3.45;;;;;;;13.31;nan;101026.03;5007905;28;20041;-85
2023/05/02 07:10:22;;;;;;;6.55;3.83;;;;;;;12.82;nan;101038.69;5012658;28;20033;-84
2023/05/02 07:12:49;;;;;;;4.82;3.25;;;;;;;12.86;nan;101045.69;5027926;28;20041;-84
2023/05/02 07:15:16;;;;;;;7.88;5.85;;;;;;;13.00;nan;101041.81;4995408;28;20047;-84
2023/05/02 07:17:46;;;;;;;4.32;3.10;;;;;;;13.10;nan;101048.63;5015465;28;20037;-85
2023/05/02 07:20:14;;;;;;;5.78;3.70;;;;;;;13.30;nan;101061.44;5016207;28;20033;-84
2023/05/02 07:22:41;;;;;;;6.70;3.90;;;;;;;13.01;nan;101056.81;5016993;28;20697;-84
2023/05/02 07:25:09;;;;;;;10.15;4.03;;;;;;;13.21;nan;101051.94;5013291;28;20045;-81
2023/05/02 07:27:36;;;;;;;6.28;3.95;;;;;;;13.66;nan;101059.59;5015221;28;20429;-82
2023/05/02 07:30:06;;;;;;;6.60;3.85;;;;;;;13.72;nan;101065.63;5009027;28;20040;-83
2023/05/02 07:32:33;;;;;;;5.72;3.72;;;;;;;13.67;nan;101058.69;5026093;28;20056;-80
2023/05/02 07:35:00;;;;;;;6.78;3.88;;;;;;;13.53;nan;101061.69;5027349;28;20040;-82
2023/05/02 07:37:31;;;;;;;5.90;3.88;;;;;;;13.73;nan;101072.69;5014149;28;20044;-82
2023/05/02 07:40:00;;;;;;;8.38;4.57;;;;;;;13.56;nan;101069.59;5025892;28;20384;-82
2023/05/02 07:42:30;;;;;;;5.90;3.58;;;;;;;13.36;nan;101082.50;5040542;28;20095;-82
2023/05/02 07:44:58;;;;;;;5.97;3.97;;;;;;;13.51;nan;101072.34;5031206;28;20047;-83
2023/05/02 07:47:28;;;;;;;6.07;4.00;;;;;;;13.74;nan;101077.06;5015238;28;20041;-83
2023/05/02 07:49:55;;;;;;;5.93;4.25;;;;;;;13.83;nan;101083.91;5013714;28;20037;-83
2023/05/02 07:52:22;;;;;;;6.38;4.45;;;;;;;13.67;nan;101087.91;5032172;28;20052;-84
2023/05/02 07:54:50;;;;;;;5.82;4.00;;;;;;;13.79;nan;101092.91;5023252;28;20029;-83
2023/05/02 07:57:17;;;;;;;6.18;3.50;;;;;;;13.67;nan;101096.72;5015039;28;20037;-82
2023/05/02 07:59:44;;;;;;;5.95;3.53;;;;;;;13.58;nan;101101.41;5020228;28;20033;-84
2023/05/02 08:02:12;;;;;;;5.53;3.63;;;;;;;13.80;nan;101084.00;5044876;28;20049;-84
2023/05/02 08:04:40;;;;;;;6.13;3.85;;;;;;;13.80;nan;101094.63;5024547;28;20059;-84
2023/05/02 08:07:07;;;;;;;6.70;4.50;;;;;;;13.90;nan;101090.81;5040206;28;20037;-83
2023/05/02 08:09:34;;;;;;;6.68;4.20;;;;;;;14.05;nan;101094.84;5011142;28;20545;-83
2023/05/02 08:12:02;;;;;;;6.43;4.68;;;;;;;14.01;nan;101107.31;4997631;28;20049;-82
2023/05/02 08:14:29;;;;;;;6.45;4.57;;;;;;;13.96;nan;101100.41;5026112;28;20059;-82
2023/05/02 08:16:58;;;;;;;6.75;4.38;;;;;;;13.45;nan;101109.69;5010856;28;20040;-83
2023/05/02 08:19:25;;;;;;;5.78;4.22;;;;;;;13.74;nan;101122.22;5045818;28;20051;-83
2023/05/02 08:21:53;;;;;;;6.85;4.13;;;;;;;13.49;nan;101113.13;5028927;28;20403;-81
2023/05/02 08:24:20;;;;;;;6.72;4.32;;;;;;;14.15;nan;101122.03;5014662;28;20033;-84
2023/05/02 08:26:47;;;;;;;7.35;4.78;;;;;;;14.45;nan;101126.47;5031884;28;20043;-83
2023/05/02 08:29:14;;;;;;;6.45;4.32;;;;;;;14.80;nan;101130.78;5026514;28;20406;-80
2023/05/02 08:31:41;;;;;;;6.88;4.40;;;;;;;15.13;nan;101128.84;5030473;28;20040;-79
2023/05/02 08:34:08;;;;;;;7.07;4.28;;;;;;;15.15;nan;101123.47;5027347;28;20062;-81
2023/05/02 08:36:36;;;;;;;7.60;4.68;;;;;;;15.07;nan;101134.38;5023426;28;20040;-80
2023/05/02 08:39:03;;;;;;;6.75;4.20;;;;;;;14.60;nan;101144.66;4997552;28;20216;-80
2023/05/02 08:41:30;;;;;;;8.02;4.75;;;;;;;13.69;nan;101149.78;5012984;28;20048;-80
2023/05/02 08:43:58;;;;;;;7.57;4.30;;;;;;;13.59;nan;101149.16;5020124;28;20044;-80
2023/05/02 08:46:25;;;;;;;7.50;4.43;;;;;;;13.66;nan;101155.19;4998570;28;20524;-81
2023/05/02 08:48:52;;;;;;;8.00;5.00;;;;;;;13.39;nan;101157.63;4999144;28;20045;-81
2023/05/02 08:51:22;;;;;;;8.82;5.72;;;;;;;13.47;nan;101166.28;5006485;28;20048;-80
2023/05/02 08:53:51;;;;;;;6.40;4.75;;;;;;;13.71;nan;101171.88;4996292;28;20043;-80
2023/05/02 08:56:18;;;;;;;9.35;5.47;;;;;;;13.46;nan;101169.84;4993109;28;20049;-82
2023/05/02 08:58:45;;;;;;;7.10;5.32;;;;;;;13.57;nan;101184.63;4994475;28;20045;-80
2023/05/02 09:01:14;;;;;;;11.25;6.68;;;;;;;13.39;nan;101194.78;5005722;28;20072;-80
2023/05/02 09:03:43;;;;;;;9.27;6.47;;;;;;;13.00;nan;101199.16;4988154;28;20557;-80
2023/05/02 09:06:12;;;;;;;12.07;6.70;;;;;;;13.00;nan;101211.56;5023285;28;20384;-80
2023/05/02 09:08:40;;;;;;;16.95;6.50;;;;;;;12.82;nan;101216.34;5027150;28;20033;-81
2023/05/02 09:11:09;;;;;;;10.95;6.63;;;;;;;12.66;nan;101210.47;5002287;28;20044;-81
2023/05/02 09:13:40;;;;;;;9.55;6.30;;;;;;;12.56;nan;101221.31;5027546;28;20043;-80
2023/05/02 09:16:10;;;;;;;9.23;4.53;;;;;;;12.46;nan;101233.88;5048241;28;20043;-80
2023/05/02 09:18:45;;;;;;;8.52;4.63;;;;;;;12.36;nan;101242.91;5014371;28;20037;-80
2023/05/02 09:21:17;;;;;;;7.97;3.70;;;;;;;12.31;nan;101253.56;5013286;28;20063;-80
2023/05/02 09:23:48;;;;;;;7.55;3.50;;;;;;;12.68;nan;101252.84;5018670;28;20044;-80
2023/05/02 09:26:23;;;;;;;6.63;3.55;;;;;;;12.71;nan;101260.78;5006472;28;20394;-80
2023/05/02 09:28:52;;;;;;;6.43;2.88;;;;;;;12.91;nan;101263.88;5012589;28;20433;-79
2023/05/02 09:31:26;;;;;;;7.65;2.97;;;;;;;12.82;nan;101260.53;5028526;28;20507;-80
2023/05/02 09:34:15;;;;;;;7.68;3.10;;;;;;;12.51;nan;101268.22;5025826;28;20042;-79
2023/05/02 09:36:46;;;;;;;5.55;2.97;;;;;;;12.31;nan;101269.47;5022528;28;20051;-80
2023/05/02 09:39:15;;;;;;;7.70;3.05;;;;;;;12.16;nan;101269.72;5030270;28;20440;-79
2023/05/02 09:41:44;;;;;;;8.68;3.47;;;;;;;11.68;nan;101274.88;5026789;28;20048;-80
2023/05/02 09:44:12;;;;;;;10.98;4.03;;;;;;;11.48;nan;101291.06;5010000;28;20052;-80
2023/05/02 09:46:40;;;;;;;8.30;3.33;;;;;;;11.62;nan;101285.56;5021734;28;20044;-79
2023/05/02 09:49:08;;;;;;;9.98;4.13;;;;;;;11.27;nan;101294.88;5029884;28;20502;-79
2023/05/02 09:51:35;;;;;;;8.35;3.90;;;;;;;11.21;nan;101302.88;5017981;28;20041;-80
2023/05/02 09:54:04;;;;;;;8.75;4.18;;;;;;;11.45;nan;101306.09;5030165;28;20055;-80
2023/05/02 09:56:31;;;;;;;8.93;4.05;;;;;;;11.65;nan;101295.22;5020378;28;20644;-80
2023/05/02 09:59:14;;;;;;;7.97;3.67;;;;;;;11.73;nan;101307.44;5023356;28;20048;-80
2023/05/02 10:01:41;;;;;;;9.55;4.03;;;;;;;11.88;nan;101297.56;5007470;28;20040;-80
2023/05/02 10:04:15;;;;;;;11.75;3.70;;;;;;;12.06;nan;101307.88;5030760;28;20044;-80
2023/05/02 10:06:44;;;;;;;7.53;4.35;;;;;;;12.06;nan;101310.50;5025148;28;20418;-80
2023/05/02 10:09:13;;;;;;;9.60;3.40;;;;;;;12.11;nan;101300.72;5012365;28;20646;-79
2023/05/02 10:11:45;;;;;;;7.82;3.25;;;;;;;12.22;nan;101308.50;5024912;28;20029;-80
2023/05/02 10:14:14;;;;;;;7.68;3.55;;;;;;;12.47;nan;101312.47;5031226;28;20040;-80
2023/05/02 10:16:50;;;;;;;10.00;3.92;;;;;;;12.53;nan;101309.72;5027640;28;20037;-81
2023/05/02 10:19:23;;;;;;;9.23;3.83;;;;;;;12.48;nan;101322.16;5026531;28;20044;-81
2023/05/02 10:21:51;;;;;;;9.20;3.50;;;;;;;12.34;nan;101330.34;5015173;28;20047;-80
2023/05/02 10:24:18;;;;;;;11.30;3.75;;;;;;;12.34;nan;101327.69;5026695;28;20041;-80
2023/05/02 10:26:47;;;;;;;10.15;3.58;;;;;;;12.26;nan;101332.25;5025739;28;20044;-80
2023/05/02 10:29:14;;;;;;;24.83;6.00;;;;;;;12.39;nan;101332.91;5030387;28;20033;-80
2023/05/02 10:31:42;;;;;;;8.95;3.45;;;;;;;12.33;nan;101325.94;5026584;28;20044;-79
2023/05/02 10:34:11;;;;;;;14.38;4.13;;;;;;;12.38;nan;101333.81;5025938;28;20042;-79
2023/05/02 10:36:38;;;;;;;8.00;3.47;;;;;;;12.37;nan;101330.31;5032834;28;20041;-79
2023/05/02 10:39:05;;;;;;;6.72;3.72;;;;;;;12.21;nan;101350.00;5019698;28;20483;-79
2023/05/02 10:41:34;;;;;;;10.30;3.50;;;;;;;12.33;nan;101347.13;5017968;28;20406;-79
2023/05/02 10:44:06;;;;;;;8.43;3.58;;;;;;;12.55;nan;101346.78;5009398;28;20033;-80
2023/05/02 10:46:34;;;;;;;7.75;3.75;;;;;;;11.99;nan;101346.81;5018034;28;20274;-80
2023/05/02 10:49:11;;;;;;;7.28;3.80;;;;;;;12.15;nan;101368.63;5012664;28;20036;-79
2023/05/02 10:51:40;;;;;;;7.93;4.18;;;;;;;12.32;nan;101356.00;5033062;28;20047;-80
2023/05/02 10:54:16;;;;;;;9.20;3.67;;;;;;;12.21;nan;101365.91;5016486;28;20040;-79
2023/05/02 10:57:02;;;;;;;13.45;4.28;;;;;;;12.27;nan;101371.06;5040197;28;20421;-80
2023/05/02 10:59:36;;;;;;;8.95;3.75;;;;;;;12.14;nan;101366.88;5045571;28;20402;-81
2023/05/02 11:02:26;;;;;;;12.13;3.22;;;;;;;12.21;nan;101373.84;5019406;28;20043;-80
2023/05/02 11:05:04;;;;;;;7.13;3.42;;;;;;;12.27;nan;101373.72;5031270;28;20445;-82
2023/05/02 11:07:35;;;;;;;5.95;3.20;;;;;;;12.24;nan;101379.09;5024272;28;20047;-81
2023/05/02 11:10:14;;;;;;;5.75;3.10;;;;;;;12.13;nan;101382.81;5008600;28;20037;-81
2023/05/02 11:12:48;;;;;;;19.77;6.40;;;;;;;12.11;nan;101383.72;5028034;28;20037;-80
2023/05/02 11:15:21;;;;;;;7.18;3.97;;;;;;;11.89;nan;101384.91;4999710;28;20051;-81
2023/05/02 11:18:00;;;;;;;6.43;3.38;;;;;;;12.03;nan;101392.69;5028545;28;20029;-80
2023/05/02 11:20:28;;;;;;;16.80;4.10;;;;;;;12.21;nan;101395.03;5031409;28;20033;-82
2023/05/02 11:22:57;;;;;;;8.88;3.67;;;;;;;12.09;nan;101398.72;5012056;28;20418;-81
2023/05/02 11:25:32;;;;;;;11.63;3.85;;;;;;;11.68;nan;101388.69;5038480;28;20037;-81
2023/05/02 11:28:00;;;;;;;11.82;3.78;;;;;;;11.89;nan;101394.63;5014957;28;20150;-80
2023/05/02 11:30:43;;;;;;;5.95;3.33;;;;;;;11.59;nan;101401.16;5016425;28;20041;-80
2023/05/02 11:33:11;;;;;;;8.88;4.35;;;;;;;11.67;nan;101402.81;5001790;28;20049;-80
2023/05/02 11:35:41;;;;;;;6.63;4.30;;;;;;;11.71;nan;101404.53;5018346;28;20049;-79
2023/05/02 11:38:13;;;;;;;4.65;3.50;;;;;;;11.92;nan;101419.28;5014922;28;20071;-79
2023/05/02 11:40:40;;;;;;;8.27;4.13;;;;;;;11.86;nan;101421.16;5014459;28;20037;-78
2023/05/02 11:43:15;;;;;;;38.03;7.70;;;;;;;12.18;nan;101418.91;5015305;28;20037;-79
2023/05/02 11:45:42;;;;;;;10.50;4.57;;;;;;;11.83;nan;101425.59;4996898;28;20051;-78
2023/05/02 11:48:11;;;;;;;10.88;4.47;;;;;;;11.69;nan;101426.66;5027091;28;20047;-81
2023/05/02 11:50:46;;;;;;;6.78;3.25;;;;;;;11.53;nan;101431.25;5014866;28;20037;-78
2023/05/02 11:53:22;;;;;;;21.65;6.15;;;;;;;12.02;nan;101434.19;5015563;28;20051;-79